sensor_id;sensor_type;location;lat;lon;timestamp;temperature;humidity
75296;DHT22;64623;44.738;37.804;2022-11-15T00:01:31;7.92;76.09
75296;DHT22;64623;44.738;37.804;2022-11-15T00:04:19;7.93;76.18
75296;DHT22;64623;44.738;37.804;2022-11-15T00:07:07;7.98;76.04
75296;DHT22;64623;44.738;37.804;2022-11-15T00:09:58;7.96;77.72
75296;DHT22;64623;44.738;37.804;2022-11-15T00:12:46;7.99;74.49
75296;DHT22;64623;44.738;37.804;2022-11-15T00:15:36;7.98;74.80
75296;DHT22;64623;44.738;37.804;2022-11-15T00:18:26;7.96;74.17
75296;DHT22;64623;44.738;37.804;2022-11-15T00:21:15;7.83;75.18
75296;DHT22;64623;44.738;37.804;2022-11-15T00:24:04;7.88;77.79
75296;DHT22;64623;44.738;37.804;2022-11-15T00:26:52;7.84;75.30
75296;DHT22;64623;44.738;37.804;2022-11-15T00:29:40;7.76;78.95
75296;DHT22;64623;44.738;37.804;2022-11-15T00:32:32;7.78;76.82
75296;DHT22;64623;44.738;37.804;2022-11-15T00:35:21;7.77;78.70
75296;DHT22;64623;44.738;37.804;2022-11-15T00:38:10;7.72;79.05
75296;DHT22;64623;44.738;37.804;2022-11-15T00:40:58;7.74;76.84
75296;DHT22;64623;44.738;37.804;2022-11-15T00:43:47;7.72;77.98
75296;DHT22;64623;44.738;37.804;2022-11-15T00:46:35;7.69;78.37
75296;DHT22;64623;44.738;37.804;2022-11-15T00:49:23;7.68;77.88
75296;DHT22;64623;44.738;37.804;2022-11-15T00:52:11;7.70;79.00
75296;DHT22;64623;44.738;37.804;2022-11-15T00:54:59;7.69;75.62
75296;DHT22;64623;44.738;37.804;2022-11-15T00:57:47;7.71;76.16
75296;DHT22;64623;44.738;37.804;2022-11-15T01:00:39;7.65;76.44
75296;DHT22;64623;44.738;37.804;2022-11-15T01:03:27;7.67;74.44
75296;DHT22;64623;44.738;37.804;2022-11-15T01:06:15;7.64;73.72
75296;DHT22;64623;44.738;37.804;2022-11-15T01:09:03;7.58;73.57
75296;DHT22;64623;44.738;37.804;2022-11-15T01:11:52;7.65;74.10
75296;DHT22;64623;44.738;37.804;2022-11-15T01:14:40;7.60;73.74
75296;DHT22;64623;44.738;37.804;2022-11-15T01:17:30;7.64;76.60
75296;DHT22;64623;44.738;37.804;2022-11-15T01:20:18;7.61;75.15
75296;DHT22;64623;44.738;37.804;2022-11-15T01:23:06;7.56;73.66
75296;DHT22;64623;44.738;37.804;2022-11-15T01:25:59;7.50;75.10
75296;DHT22;64623;44.738;37.804;2022-11-15T01:28:49;7.52;77.28
75296;DHT22;64623;44.738;37.804;2022-11-15T01:31:36;7.56;73.07
75296;DHT22;64623;44.738;37.804;2022-11-15T01:34:25;7.56;73.35
75296;DHT22;64623;44.738;37.804;2022-11-15T01:37:13;7.54;72.42
75296;DHT22;64623;44.738;37.804;2022-11-15T01:40:01;7.57;75.31
75296;DHT22;64623;44.738;37.804;2022-11-15T01:42:49;7.54;72.93
75296;DHT22;64623;44.738;37.804;2022-11-15T01:45:37;7.56;70.93
75296;DHT22;64623;44.738;37.804;2022-11-15T01:48:29;7.54;70.41
75296;DHT22;64623;44.738;37.804;2022-11-15T01:51:20;7.54;69.91
75296;DHT22;64623;44.738;37.804;2022-11-15T01:54:14;7.55;70.90
75296;DHT22;64623;44.738;37.804;2022-11-15T01:57:06;7.52;70.48
75296;DHT22;64623;44.738;37.804;2022-11-15T01:59:57;7.54;74.60
75296;DHT22;64623;44.738;37.804;2022-11-15T02:02:46;7.59;72.18
75296;DHT22;64623;44.738;37.804;2022-11-15T02:05:36;7.52;70.71
75296;DHT22;64623;44.738;37.804;2022-11-15T02:08:24;7.59;68.28
75296;DHT22;64623;44.738;37.804;2022-11-15T02:11:13;7.61;68.65
75296;DHT22;64623;44.738;37.804;2022-11-15T02:14:02;7.53;69.84
75296;DHT22;64623;44.738;37.804;2022-11-15T02:37:03;7.55;69.39
75296;DHT22;64623;44.738;37.804;2022-11-15T02:42:39;7.45;69.99
75296;DHT22;64623;44.738;37.804;2022-11-15T02:45:53;7.49;71.38
75296;DHT22;64623;44.738;37.804;2022-11-15T02:48:44;7.53;69.30
75296;DHT22;64623;44.738;37.804;2022-11-15T02:51:33;7.58;68.52
75296;DHT22;64623;44.738;37.804;2022-11-15T02:54:26;7.58;68.13
75296;DHT22;64623;44.738;37.804;2022-11-15T02:57:19;7.60;71.14
75296;DHT22;64623;44.738;37.804;2022-11-15T03:00:11;7.60;67.04
75296;DHT22;64623;44.738;37.804;2022-11-15T03:03:35;7.55;65.30
75296;DHT22;64623;44.738;37.804;2022-11-15T03:06:41;7.53;65.75
75296;DHT22;64623;44.738;37.804;2022-11-15T03:09:45;7.56;65.46
75296;DHT22;64623;44.738;37.804;2022-11-15T03:12:51;7.56;68.33
75296;DHT22;64623;44.738;37.804;2022-11-15T03:15:46;7.65;73.11
75296;DHT22;64623;44.738;37.804;2022-11-15T03:18:40;7.55;66.79
75296;DHT22;64623;44.738;37.804;2022-11-15T03:21:30;7.61;65.44
75296;DHT22;64623;44.738;37.804;2022-11-15T03:24:20;7.58;65.21
75296;DHT22;64623;44.738;37.804;2022-11-15T03:27:16;7.50;67.41
75296;DHT22;64623;44.738;37.804;2022-11-15T03:30:08;7.47;72.56
75296;DHT22;64623;44.738;37.804;2022-11-15T03:32:57;7.63;68.86
75296;DHT22;64623;44.738;37.804;2022-11-15T03:35:47;7.62;62.83
75296;DHT22;64623;44.738;37.804;2022-11-15T03:38:38;7.58;63.85
75296;DHT22;64623;44.738;37.804;2022-11-15T03:41:39;7.59;60.64
75296;DHT22;64623;44.738;37.804;2022-11-15T03:47:34;7.47;64.27
75296;DHT22;64623;44.738;37.804;2022-11-15T03:50:24;7.53;69.72
75296;DHT22;64623;44.738;37.804;2022-11-15T03:53:13;7.44;63.98
75296;DHT22;64623;44.738;37.804;2022-11-15T03:56:01;7.42;62.67
75296;DHT22;64623;44.738;37.804;2022-11-15T03:58:49;7.46;65.97
75296;DHT22;64623;44.738;37.804;2022-11-15T04:01:37;7.49;63.92
75296;DHT22;64623;44.738;37.804;2022-11-15T04:04:25;7.72;69.28
75296;DHT22;64623;44.738;37.804;2022-11-15T04:07:14;7.76;62.56
75296;DHT22;64623;44.738;37.804;2022-11-15T04:10:02;7.65;62.23
75296;DHT22;64623;44.738;37.804;2022-11-15T04:12:49;7.59;62.97
75296;DHT22;64623;44.738;37.804;2022-11-15T04:15:37;7.45;63.08
75296;DHT22;64623;44.738;37.804;2022-11-15T04:18:25;7.33;63.79
75296;DHT22;64623;44.738;37.804;2022-11-15T04:21:13;7.29;63.55
75296;DHT22;64623;44.738;37.804;2022-11-15T04:24:19;7.48;61.69
75296;DHT22;64623;44.738;37.804;2022-11-15T04:27:07;7.40;61.47
75296;DHT22;64623;44.738;37.804;2022-11-15T04:29:55;7.41;62.50
75296;DHT22;64623;44.738;37.804;2022-11-15T04:32:44;7.42;65.06
75296;DHT22;64623;44.738;37.804;2022-11-15T04:35:32;7.38;61.73
75296;DHT22;64623;44.738;37.804;2022-11-15T04:38:20;7.34;63.38
75296;DHT22;64623;44.738;37.804;2022-11-15T04:41:08;7.46;68.53
75296;DHT22;64623;44.738;37.804;2022-11-15T04:43:56;7.46;64.03
75296;DHT22;64623;44.738;37.804;2022-11-15T04:46:44;7.42;61.14
75296;DHT22;64623;44.738;37.804;2022-11-15T04:49:32;7.33;63.04
75296;DHT22;64623;44.738;37.804;2022-11-15T04:52:20;7.50;64.66
75296;DHT22;64623;44.738;37.804;2022-11-15T04:55:11;7.67;63.13
75296;DHT22;64623;44.738;37.804;2022-11-15T04:58:00;7.98;61.15
75296;DHT22;64623;44.738;37.804;2022-11-15T05:00:48;8.33;61.25
75296;DHT22;64623;44.738;37.804;2022-11-15T05:03:37;8.76;62.73
75296;DHT22;64623;44.738;37.804;2022-11-15T05:06:43;9.32;56.37
75296;DHT22;64623;44.738;37.804;2022-11-15T05:09:30;9.80;52.20
75296;DHT22;64623;44.738;37.804;2022-11-15T05:12:19;10.07;52.85
75296;DHT22;64623;44.738;37.804;2022-11-15T05:15:07;10.48;50.19
75296;DHT22;64623;44.738;37.804;2022-11-15T05:17:59;10.86;47.98
75296;DHT22;64623;44.738;37.804;2022-11-15T05:20:48;11.36;45.73
75296;DHT22;64623;44.738;37.804;2022-11-15T05:23:36;12.13;46.35
75296;DHT22;64623;44.738;37.804;2022-11-15T05:26:24;13.11;44.34
75296;DHT22;64623;44.738;37.804;2022-11-15T05:29:12;13.80;46.14
75296;DHT22;64623;44.738;37.804;2022-11-15T05:32:00;14.33;41.53
75296;DHT22;64623;44.738;37.804;2022-11-15T05:34:48;14.40;38.91
75296;DHT22;64623;44.738;37.804;2022-11-15T05:37:36;15.00;40.72
75296;DHT22;64623;44.738;37.804;2022-11-15T05:40:25;16.00;37.56
75296;DHT22;64623;44.738;37.804;2022-11-15T05:43:14;16.61;35.85
75296;DHT22;64623;44.738;37.804;2022-11-15T05:46:02;17.43;35.23
75296;DHT22;64623;44.738;37.804;2022-11-15T05:48:52;17.66;33.60
75296;DHT22;64623;44.738;37.804;2022-11-15T05:51:42;17.87;34.26
75296;DHT22;64623;44.738;37.804;2022-11-15T05:54:32;18.15;33.92
75296;DHT22;64623;44.738;37.804;2022-11-15T05:57:20;18.54;32.40
75296;DHT22;64623;44.738;37.804;2022-11-15T06:00:09;19.21;31.33
75296;DHT22;64623;44.738;37.804;2022-11-15T06:02:57;20.00;30.05
75296;DHT22;64623;44.738;37.804;2022-11-15T06:05:46;20.19;30.45
75296;DHT22;64623;44.738;37.804;2022-11-15T06:08:35;20.36;28.54
75296;DHT22;64623;44.738;37.804;2022-11-15T06:11:23;20.57;27.36
75296;DHT22;64623;44.738;37.804;2022-11-15T06:14:11;20.37;28.65
75296;DHT22;64623;44.738;37.804;2022-11-15T06:16:59;20.63;26.36
75296;DHT22;64623;44.738;37.804;2022-11-15T06:19:47;20.71;33.60
75296;DHT22;64623;44.738;37.804;2022-11-15T06:22:36;21.13;25.91
75296;DHT22;64623;44.738;37.804;2022-11-15T06:25:24;21.70;24.85
75296;DHT22;64623;44.738;37.804;2022-11-15T06:28:12;21.29;28.01
75296;DHT22;64623;44.738;37.804;2022-11-15T06:31:05;20.89;25.64
75296;DHT22;64623;44.738;37.804;2022-11-15T06:33:53;21.54;25.90
75296;DHT22;64623;44.738;37.804;2022-11-15T06:36:41;21.61;25.03
75296;DHT22;64623;44.738;37.804;2022-11-15T06:39:29;22.07;23.98
75296;DHT22;64623;44.738;37.804;2022-11-15T06:42:18;22.63;23.05
75296;DHT22;64623;44.738;37.804;2022-11-15T06:45:07;23.38;21.37
75296;DHT22;64623;44.738;37.804;2022-11-15T06:47:56;23.44;21.04
75296;DHT22;64623;44.738;37.804;2022-11-15T06:50:51;23.85;21.18
75296;DHT22;64623;44.738;37.804;2022-11-15T06:53:39;23.80;21.08
75296;DHT22;64623;44.738;37.804;2022-11-15T06:56:27;24.32;19.44
75296;DHT22;64623;44.738;37.804;2022-11-15T06:59:16;24.05;20.12
75296;DHT22;64623;44.738;37.804;2022-11-15T07:02:05;24.84;18.81
75296;DHT22;64623;44.738;37.804;2022-11-15T07:04:55;25.04;20.12
75296;DHT22;64623;44.738;37.804;2022-11-15T07:07:50;24.73;20.55
75296;DHT22;64623;44.738;37.804;2022-11-15T07:10:38;24.90;18.20
75296;DHT22;64623;44.738;37.804;2022-11-15T07:13:27;25.20;18.74
75296;DHT22;64623;44.738;37.804;2022-11-15T07:16:16;24.60;22.48
75296;DHT22;64623;44.738;37.804;2022-11-15T07:19:04;24.16;20.25
75296;DHT22;64623;44.738;37.804;2022-11-15T07:21:53;24.27;21.09
75296;DHT22;64623;44.738;37.804;2022-11-15T07:24:41;24.20;20.99
75296;DHT22;64623;44.738;37.804;2022-11-15T07:27:30;24.08;21.74
75296;DHT22;64623;44.738;37.804;2022-11-15T07:30:18;24.09;21.37
75296;DHT22;64623;44.738;37.804;2022-11-15T07:33:06;24.79;20.83
75296;DHT22;64623;44.738;37.804;2022-11-15T07:36:01;24.79;20.76
75296;DHT22;64623;44.738;37.804;2022-11-15T07:38:49;24.89;20.05
75296;DHT22;64623;44.738;37.804;2022-11-15T07:41:38;25.01;20.71
75296;DHT22;64623;44.738;37.804;2022-11-15T07:44:26;25.28;18.37
75296;DHT22;64623;44.738;37.804;2022-11-15T07:47:14;25.45;20.17
75296;DHT22;64623;44.738;37.804;2022-11-15T07:50:04;25.88;16.98
75296;DHT22;64623;44.738;37.804;2022-11-15T07:52:56;25.67;18.39
75296;DHT22;64623;44.738;37.804;2022-11-15T07:55:44;25.92;17.68
75296;DHT22;64623;44.738;37.804;2022-11-15T07:58:32;26.43;19.09
75296;DHT22;64623;44.738;37.804;2022-11-15T08:01:22;26.73;17.70
75296;DHT22;64623;44.738;37.804;2022-11-15T08:04:12;26.68;16.81
75296;DHT22;64623;44.738;37.804;2022-11-15T08:06:59;27.24;18.44
75296;DHT22;64623;44.738;37.804;2022-11-15T08:09:48;27.34;18.38
75296;DHT22;64623;44.738;37.804;2022-11-15T08:12:38;27.63;16.54
75296;DHT22;64623;44.738;37.804;2022-11-15T08:15:27;26.34;19.28
75296;DHT22;64623;44.738;37.804;2022-11-15T08:18:16;27.05;16.54
75296;DHT22;64623;44.738;37.804;2022-11-15T08:21:05;27.73;16.64
75296;DHT22;64623;44.738;37.804;2022-11-15T08:23:53;28.02;16.79
75296;DHT22;64623;44.738;37.804;2022-11-15T08:26:43;28.39;16.98
75296;DHT22;64623;44.738;37.804;2022-11-15T08:29:32;28.63;16.15
75296;DHT22;64623;44.738;37.804;2022-11-15T08:32:21;29.01;14.32
75296;DHT22;64623;44.738;37.804;2022-11-15T08:35:10;28.89;14.47
75296;DHT22;64623;44.738;37.804;2022-11-15T08:37:59;29.15;15.20
75296;DHT22;64623;44.738;37.804;2022-11-15T08:40:47;29.33;14.24
75296;DHT22;64623;44.738;37.804;2022-11-15T08:43:36;29.80;17.51
75296;DHT22;64623;44.738;37.804;2022-11-15T08:46:24;29.74;15.77
75296;DHT22;64623;44.738;37.804;2022-11-15T08:49:12;29.68;15.32
75296;DHT22;64623;44.738;37.804;2022-11-15T08:52:01;29.97;16.06
75296;DHT22;64623;44.738;37.804;2022-11-15T08:54:50;30.10;15.62
75296;DHT22;64623;44.738;37.804;2022-11-15T08:57:40;30.20;14.49
75296;DHT22;64623;44.738;37.804;2022-11-15T09:00:30;29.89;15.74
75296;DHT22;64623;44.738;37.804;2022-11-15T09:03:24;30.22;14.64
75296;DHT22;64623;44.738;37.804;2022-11-15T09:06:13;30.38;14.42
75296;DHT22;64623;44.738;37.804;2022-11-15T09:09:03;30.18;15.13
75296;DHT22;64623;44.738;37.804;2022-11-15T09:11:51;30.30;15.10
75296;DHT22;64623;44.738;37.804;2022-11-15T09:14:40;29.97;15.46
75296;DHT22;64623;44.738;37.804;2022-11-15T09:17:28;30.21;14.80
75296;DHT22;64623;44.738;37.804;2022-11-15T09:20:17;30.19;15.39
75296;DHT22;64623;44.738;37.804;2022-11-15T09:23:06;30.64;14.61
75296;DHT22;64623;44.738;37.804;2022-11-15T09:26:00;30.57;15.59
75296;DHT22;64623;44.738;37.804;2022-11-15T09:28:48;30.78;14.53
75296;DHT22;64623;44.738;37.804;2022-11-15T09:31:37;31.64;13.34
75296;DHT22;64623;44.738;37.804;2022-11-15T09:34:25;31.53;13.57
75296;DHT22;64623;44.738;37.804;2022-11-15T09:37:14;31.60;14.65
75296;DHT22;64623;44.738;37.804;2022-11-15T09:40:02;31.79;11.92
75296;DHT22;64623;44.738;37.804;2022-11-15T09:49:34;31.60;14.07
75296;DHT22;64623;44.738;37.804;2022-11-15T09:52:18;31.61;13.97
75296;DHT22;64623;44.738;37.804;2022-11-15T09:54:51;31.48;14.03
75296;DHT22;64623;44.738;37.804;2022-11-15T10:00:31;31.12;17.88
75296;DHT22;64623;44.738;37.804;2022-11-15T10:03:30;31.49;13.71
75296;DHT22;64623;44.738;37.804;2022-11-15T10:06:04;31.51;13.94
75296;DHT22;64623;44.738;37.804;2022-11-15T10:11:14;31.49;13.46
75296;DHT22;64623;44.738;37.804;2022-11-15T10:14:21;31.67;13.74
75296;DHT22;64623;44.738;37.804;2022-11-15T10:22:35;32.24;13.06
75296;DHT22;64623;44.738;37.804;2022-11-15T10:25:17;32.16;12.20
75296;DHT22;64623;44.738;37.804;2022-11-15T10:27:54;32.40;13.41
75296;DHT22;64623;44.738;37.804;2022-11-15T10:30:39;32.32;12.62
75296;DHT22;64623;44.738;37.804;2022-11-15T10:41:22;32.68;12.44
75296;DHT22;64623;44.738;37.804;2022-11-15T10:46:38;32.62;12.86
75296;DHT22;64623;44.738;37.804;2022-11-15T10:52:20;32.71;12.59
75296;DHT22;64623;44.738;37.804;2022-11-15T10:55:03;32.73;13.70
75296;DHT22;64623;44.738;37.804;2022-11-15T10:57:37;32.88;12.35
75296;DHT22;64623;44.738;37.804;2022-11-15T11:00:36;32.29;16.14
75296;DHT22;64623;44.738;37.804;2022-11-15T11:03:36;32.16;13.65
75296;DHT22;64623;44.738;37.804;2022-11-15T11:06:15;32.02;14.17
75296;DHT22;64623;44.738;37.804;2022-11-15T11:09:05;31.69;15.48
75296;DHT22;64623;44.738;37.804;2022-11-15T11:11:49;31.48;14.57
75296;DHT22;64623;44.738;37.804;2022-11-15T11:14:22;31.59;14.07
75296;DHT22;64623;44.738;37.804;2022-11-15T11:17:06;31.35;14.24
75296;DHT22;64623;44.738;37.804;2022-11-15T11:20:00;31.48;14.29
75296;DHT22;64623;44.738;37.804;2022-11-15T11:23:02;31.53;14.10
75296;DHT22;64623;44.738;37.804;2022-11-15T11:28:42;31.44;13.81
75296;DHT22;64623;44.738;37.804;2022-11-15T11:34:27;31.10;16.05
75296;DHT22;64623;44.738;37.804;2022-11-15T11:37:14;31.06;17.17
75296;DHT22;64623;44.738;37.804;2022-11-15T11:49:32;29.70;16.40
75296;DHT22;64623;44.738;37.804;2022-11-15T11:52:10;29.51;17.36
75296;DHT22;64623;44.738;37.804;2022-11-15T11:54:55;29.53;16.48
75296;DHT22;64623;44.738;37.804;2022-11-15T12:06:09;25.20;22.86
75296;DHT22;64623;44.738;37.804;2022-11-15T12:09:01;23.84;26.30
75296;DHT22;64623;44.738;37.804;2022-11-15T12:11:54;22.64;27.88
75296;DHT22;64623;44.738;37.804;2022-11-15T12:14:35;21.88;29.19
75296;DHT22;64623;44.738;37.804;2022-11-15T12:17:10;21.33;30.15
75296;DHT22;64623;44.738;37.804;2022-11-15T12:19:41;20.88;31.17
75296;DHT22;64623;44.738;37.804;2022-11-15T12:25:05;20.01;35.56
75296;DHT22;64623;44.738;37.804;2022-11-15T12:28:03;19.55;35.11
75296;DHT22;64623;44.738;37.804;2022-11-15T12:30:52;19.18;41.24
75296;DHT22;64623;44.738;37.804;2022-11-15T12:36:05;18.56;38.91
75296;DHT22;64623;44.738;37.804;2022-11-15T12:38:57;18.13;38.32
75296;DHT22;64623;44.738;37.804;2022-11-15T12:41:32;17.87;38.37
75296;DHT22;64623;44.738;37.804;2022-11-15T12:44:05;17.74;39.01
75296;DHT22;64623;44.738;37.804;2022-11-15T13:02:41;16.08;44.03
75296;DHT22;64623;44.738;37.804;2022-11-15T13:07:55;15.95;44.74
75296;DHT22;64623;44.738;37.804;2022-11-15T13:13:00;15.73;46.48
75296;DHT22;64623;44.738;37.804;2022-11-15T13:15:36;15.41;47.80
75296;DHT22;64623;44.738;37.804;2022-11-15T13:18:27;15.18;48.24
75296;DHT22;64623;44.738;37.804;2022-11-15T13:20:57;15.10;47.26
75296;DHT22;64623;44.738;37.804;2022-11-15T13:23:30;14.98;48.34
75296;DHT22;64623;44.738;37.804;2022-11-15T13:26:13;14.80;49.45
75296;DHT22;64623;44.738;37.804;2022-11-15T13:28:47;14.85;48.34
75296;DHT22;64623;44.738;37.804;2022-11-15T13:31:34;14.81;50.63
75296;DHT22;64623;44.738;37.804;2022-11-15T13:34:24;14.71;50.69
75296;DHT22;64623;44.738;37.804;2022-11-15T13:39:51;14.41;52.36
75296;DHT22;64623;44.738;37.804;2022-11-15T13:42:21;14.43;51.77
75296;DHT22;64623;44.738;37.804;2022-11-15T13:45:00;14.41;52.60
75296;DHT22;64623;44.738;37.804;2022-11-15T13:47:31;14.24;49.14
75296;DHT22;64623;44.738;37.804;2022-11-15T13:50:01;14.12;52.45
75296;DHT22;64623;44.738;37.804;2022-11-15T13:52:35;13.90;50.51
75296;DHT22;64623;44.738;37.804;2022-11-15T13:55:19;13.80;50.62
75296;DHT22;64623;44.738;37.804;2022-11-15T13:57:57;13.68;50.67
75296;DHT22;64623;44.738;37.804;2022-11-15T14:00:44;13.50;51.28
75296;DHT22;64623;44.738;37.804;2022-11-15T14:03:47;13.40;51.01
75296;DHT22;64623;44.738;37.804;2022-11-15T14:06:20;13.17;52.41
75296;DHT22;64623;44.738;37.804;2022-11-15T14:11:32;13.12;54.50
75296;DHT22;64623;44.738;37.804;2022-11-15T14:16:45;13.02;53.33
75296;DHT22;64623;44.738;37.804;2022-11-15T14:24:43;12.50;55.09
75296;DHT22;64623;44.738;37.804;2022-11-15T14:27:39;12.31;53.92
75296;DHT22;64623;44.738;37.804;2022-11-15T14:30:14;12.23;53.69
75296;DHT22;64623;44.738;37.804;2022-11-15T14:32:47;12.25;56.26
75296;DHT22;64623;44.738;37.804;2022-11-15T14:35:22;12.03;55.32
75296;DHT22;64623;44.738;37.804;2022-11-15T14:37:53;11.98;55.49
75296;DHT22;64623;44.738;37.804;2022-11-15T14:40:23;11.83;55.10
75296;DHT22;64623;44.738;37.804;2022-11-15T14:42:54;11.73;54.70
75296;DHT22;64623;44.738;37.804;2022-11-15T14:45:26;11.74;55.49
75296;DHT22;64623;44.738;37.804;2022-11-15T14:47:57;11.63;55.24
75296;DHT22;64623;44.738;37.804;2022-11-15T14:50:27;11.56;56.00
75296;DHT22;64623;44.738;37.804;2022-11-15T14:52:57;11.55;55.50
75296;DHT22;64623;44.738;37.804;2022-11-15T14:55:29;11.49;57.03
75296;DHT22;64623;44.738;37.804;2022-11-15T14:58:02;11.42;55.71
75296;DHT22;64623;44.738;37.804;2022-11-15T15:00:32;11.37;56.74
75296;DHT22;64623;44.738;37.804;2022-11-15T15:03:04;11.38;55.37
75296;DHT22;64623;44.738;37.804;2022-11-15T15:05:40;11.30;56.51
75296;DHT22;64623;44.738;37.804;2022-11-15T15:08:10;11.19;56.28
75296;DHT22;64623;44.738;37.804;2022-11-15T15:10:43;11.11;55.65
75296;DHT22;64623;44.738;37.804;2022-11-15T15:13:21;11.05;56.28
75296;DHT22;64623;44.738;37.804;2022-11-15T15:15:54;11.03;56.71
75296;DHT22;64623;44.738;37.804;2022-11-15T15:18:25;10.98;57.45
75296;DHT22;64623;44.738;37.804;2022-11-15T15:20:59;11.00;56.25
75296;DHT22;64623;44.738;37.804;2022-11-15T15:23:33;11.01;56.41
75296;DHT22;64623;44.738;37.804;2022-11-15T15:26:04;11.05;60.22
75296;DHT22;64623;44.738;37.804;2022-11-15T15:28:34;10.94;56.93
75296;DHT22;64623;44.738;37.804;2022-11-15T15:31:04;10.98;59.08
75296;DHT22;64623;44.738;37.804;2022-11-15T15:33:37;10.84;57.26
75296;DHT22;64623;44.738;37.804;2022-11-15T15:36:16;10.69;59.32
75296;DHT22;64623;44.738;37.804;2022-11-15T15:38:47;10.63;59.12
75296;DHT22;64623;44.738;37.804;2022-11-15T15:41:17;10.64;57.54
75296;DHT22;64623;44.738;37.804;2022-11-15T15:43:48;10.73;56.94
75296;DHT22;64623;44.738;37.804;2022-11-15T15:46:20;10.63;58.67
75296;DHT22;64623;44.738;37.804;2022-11-15T15:48:50;10.64;63.50
75296;DHT22;64623;44.738;37.804;2022-11-15T15:51:21;10.67;58.54
75296;DHT22;64623;44.738;37.804;2022-11-15T15:53:50;10.66;57.71
75296;DHT22;64623;44.738;37.804;2022-11-15T15:56:22;10.65;57.48
75296;DHT22;64623;44.738;37.804;2022-11-15T15:58:52;10.67;57.61
75296;DHT22;64623;44.738;37.804;2022-11-15T16:01:25;10.70;57.25
75296;DHT22;64623;44.738;37.804;2022-11-15T16:03:54;10.62;57.13
75296;DHT22;64623;44.738;37.804;2022-11-15T16:06:38;10.62;57.17
75296;DHT22;64623;44.738;37.804;2022-11-15T16:09:12;10.58;57.00
75296;DHT22;64623;44.738;37.804;2022-11-15T16:11:45;10.48;57.81
75296;DHT22;64623;44.738;37.804;2022-11-15T16:14:15;10.41;57.47
75296;DHT22;64623;44.738;37.804;2022-11-15T16:16:45;10.33;58.03
75296;DHT22;64623;44.738;37.804;2022-11-15T16:19:15;10.25;62.53
75296;DHT22;64623;44.738;37.804;2022-11-15T16:21:45;10.39;60.50
75296;DHT22;64623;44.738;37.804;2022-11-15T16:24:15;10.46;57.76
75296;DHT22;64623;44.738;37.804;2022-11-15T16:26:47;10.49;56.76
75296;DHT22;64623;44.738;37.804;2022-11-15T16:29:17;10.41;57.29
75296;DHT22;64623;44.738;37.804;2022-11-15T16:31:47;10.40;57.13
75296;DHT22;64623;44.738;37.804;2022-11-15T16:34:17;10.46;56.71
75296;DHT22;64623;44.738;37.804;2022-11-15T16:36:48;10.60;55.96
75296;DHT22;64623;44.738;37.804;2022-11-15T16:39:18;10.68;55.64
75296;DHT22;64623;44.738;37.804;2022-11-15T16:41:52;10.69;55.33
75296;DHT22;64623;44.738;37.804;2022-11-15T16:44:25;10.70;55.13
75296;DHT22;64623;44.738;37.804;2022-11-15T16:46:55;10.70;56.97
75296;DHT22;64623;44.738;37.804;2022-11-15T16:49:25;10.59;55.76
75296;DHT22;64623;44.738;37.804;2022-11-15T16:51:55;10.46;56.33
75296;DHT22;64623;44.738;37.804;2022-11-15T16:54:26;10.36;61.45
75296;DHT22;64623;44.738;37.804;2022-11-15T16:57:04;10.05;58.25
75296;DHT22;64623;44.738;37.804;2022-11-15T16:59:47;9.99;58.83
75296;DHT22;64623;44.738;37.804;2022-11-15T17:02:17;9.94;58.55
75296;DHT22;64623;44.738;37.804;2022-11-15T17:04:47;9.97;58.48
75296;DHT22;64623;44.738;37.804;2022-11-15T17:07:17;9.97;58.32
75296;DHT22;64623;44.738;37.804;2022-11-15T17:09:47;9.99;57.91
75296;DHT22;64623;44.738;37.804;2022-11-15T17:12:18;9.96;58.45
75296;DHT22;64623;44.738;37.804;2022-11-15T17:14:47;9.90;58.49
75296;DHT22;64623;44.738;37.804;2022-11-15T17:17:17;9.80;59.42
75296;DHT22;64623;44.738;37.804;2022-11-15T17:19:49;9.78;59.15
75296;DHT22;64623;44.738;37.804;2022-11-15T17:22:22;9.70;59.14
75296;DHT22;64623;44.738;37.804;2022-11-15T17:24:52;9.69;59.12
75296;DHT22;64623;44.738;37.804;2022-11-15T17:27:22;9.68;59.14
75296;DHT22;64623;44.738;37.804;2022-11-15T17:29:52;9.67;59.27
75296;DHT22;64623;44.738;37.804;2022-11-15T17:32:22;9.61;59.67
75296;DHT22;64623;44.738;37.804;2022-11-15T17:34:52;9.50;59.96
75296;DHT22;64623;44.738;37.804;2022-11-15T17:37:25;9.42;60.03
75296;DHT22;64623;44.738;37.804;2022-11-15T17:39:55;9.39;60.36
75296;DHT22;64623;44.738;37.804;2022-11-15T17:42:25;9.38;61.03
75296;DHT22;64623;44.738;37.804;2022-11-15T17:44:57;9.35;61.96
75296;DHT22;64623;44.738;37.804;2022-11-15T17:47:27;9.35;60.65
75296;DHT22;64623;44.738;37.804;2022-11-15T17:49:57;9.35;60.54
75296;DHT22;64623;44.738;37.804;2022-11-15T17:52:28;9.36;60.51
75296;DHT22;64623;44.738;37.804;2022-11-15T17:55:00;9.38;60.21
75296;DHT22;64623;44.738;37.804;2022-11-15T17:57:31;9.33;59.89
75296;DHT22;64623;44.738;37.804;2022-11-15T18:00:02;9.37;60.06
75296;DHT22;64623;44.738;37.804;2022-11-15T18:02:33;9.41;60.01
75296;DHT22;64623;44.738;37.804;2022-11-15T18:05:04;9.34;60.81
75296;DHT22;64623;44.738;37.804;2022-11-15T18:07:43;9.25;60.31
75296;DHT22;64623;44.738;37.804;2022-11-15T18:10:13;9.30;60.19
75296;DHT22;64623;44.738;37.804;2022-11-15T18:12:44;9.29;60.09
75296;DHT22;64623;44.738;37.804;2022-11-15T18:15:13;9.26;60.57
75296;DHT22;64623;44.738;37.804;2022-11-15T18:17:43;9.17;61.08
75296;DHT22;64623;44.738;37.804;2022-11-15T18:20:14;9.00;61.85
75296;DHT22;64623;44.738;37.804;2022-11-15T18:22:52;8.95;62.18
75296;DHT22;64623;44.738;37.804;2022-11-15T18:25:24;8.82;62.12
75296;DHT22;64623;44.738;37.804;2022-11-15T18:27:54;8.82;62.06
75296;DHT22;64623;44.738;37.804;2022-11-15T18:30:27;8.87;62.02
75296;DHT22;64623;44.738;37.804;2022-11-15T18:32:58;8.88;61.88
75296;DHT22;64623;44.738;37.804;2022-11-15T18:35:29;8.92;61.53
75296;DHT22;64623;44.738;37.804;2022-11-15T18:37:58;8.86;62.03
75296;DHT22;64623;44.738;37.804;2022-11-15T18:40:28;8.78;62.48
75296;DHT22;64623;44.738;37.804;2022-11-15T18:42:58;8.72;63.15
75296;DHT22;64623;44.738;37.804;2022-11-15T18:45:28;8.74;63.19
75296;DHT22;64623;44.738;37.804;2022-11-15T18:47:58;8.75;63.58
75296;DHT22;64623;44.738;37.804;2022-11-15T18:50:28;8.87;62.66
75296;DHT22;64623;44.738;37.804;2022-11-15T18:52:58;8.93;62.39
75296;DHT22;64623;44.738;37.804;2022-11-15T18:55:29;8.92;61.96
75296;DHT22;64623;44.738;37.804;2022-11-15T18:58:01;9.03;61.66
75296;DHT22;64623;44.738;37.804;2022-11-15T19:00:36;9.07;61.42
75296;DHT22;64623;44.738;37.804;2022-11-15T19:03:10;9.12;60.89